createdAt,value
2023-03-27T00:01:30.813Z,3.49
2023-03-27T00:03:58.979Z,3.50
2023-03-27T00:06:27.390Z,3.52
2023-03-27T00:08:55.792Z,3.55
2023-03-27T00:11:25.204Z,3.56
2023-03-27T00:13:54.912Z,3.54
2023-03-27T00:16:27.005Z,3.54
2023-03-27T00:18:56.351Z,3.51
2023-03-27T00:21:25.916Z,3.50
2023-03-27T00:23:54.781Z,3.49
2023-03-27T00:26:22.936Z,3.52
2023-03-27T00:28:52.954Z,3.57
2023-03-27T00:31:21.698Z,3.59
2023-03-27T00:33:49.823Z,3.63
2023-03-27T00:36:18.097Z,3.66
2023-03-27T00:38:46.041Z,3.68
2023-03-27T00:41:14.181Z,3.74
2023-03-27T00:43:43.979Z,3.81
2023-03-27T00:46:15.580Z,3.85
2023-03-27T00:48:47.987Z,3.89
2023-03-27T00:51:16.828Z,3.97
2023-03-27T00:53:48.451Z,4.09
2023-03-27T00:56:18.168Z,4.22
2023-03-27T00:59:11.076Z,4.33
2023-03-27T01:01:40.711Z,4.40
2023-03-27T01:04:09.370Z,4.48
2023-03-27T01:06:39.601Z,4.53
2023-03-27T01:09:09.506Z,4.57
2023-03-27T01:11:52.157Z,4.61
2023-03-27T01:14:32.566Z,4.65
2023-03-27T01:17:22.595Z,4.70
2023-03-27T01:20:06.166Z,4.97
2023-03-27T01:23:08.643Z,5.26
2023-03-27T01:26:02.430Z,5.62
2023-03-27T01:28:57.442Z,5.77
2023-03-27T01:31:37.813Z,5.74
2023-03-27T01:34:28.957Z,5.89
2023-03-27T01:37:09.034Z,6.14
2023-03-27T01:40:08.056Z,6.35
2023-03-27T01:42:48.217Z,6.57
2023-03-27T01:45:21.939Z,6.61
2023-03-27T01:48:28.395Z,6.62
2023-03-27T01:51:02.487Z,6.61
2023-03-27T01:53:42.964Z,6.60
2023-03-27T01:56:26.528Z,6.58
2023-03-27T01:59:04.175Z,6.54
2023-03-27T02:01:39.911Z,6.54
2023-03-27T02:04:21.171Z,6.54
2023-03-27T02:06:55.186Z,6.52
2023-03-27T02:09:49.418Z,6.53
2023-03-27T02:12:21.824Z,6.54
2023-03-27T02:14:57.863Z,6.56
2023-03-27T02:17:57.216Z,6.64
2023-03-27T02:20:25.529Z,6.73
2023-03-27T02:23:00.959Z,6.82
2023-03-27T02:25:40.612Z,6.91
2023-03-27T02:28:36.957Z,6.96
2023-03-27T02:31:32.632Z,6.97
2023-03-27T02:34:19.368Z,6.96
2023-03-27T02:37:02.549Z,6.94
2023-03-27T02:40:04.757Z,6.89
2023-03-27T02:42:42.144Z,6.85
2023-03-27T02:45:31.831Z,6.81
2023-03-27T02:48:17.530Z,6.75
2023-03-27T02:50:54.472Z,6.70
2023-03-27T02:53:26.094Z,6.67
2023-03-27T02:55:58.594Z,6.64
2023-03-27T02:58:34.693Z,6.63
2023-03-27T03:01:30.871Z,6.60
2023-03-27T03:04:42.004Z,6.57
2023-03-27T03:07:30.550Z,6.56
2023-03-27T03:09:58.815Z,6.54
2023-03-27T03:12:26.992Z,6.51
2023-03-27T03:14:56.701Z,6.50
2023-03-27T03:17:24.930Z,6.49
2023-03-27T03:19:53.988Z,6.46
2023-03-27T03:22:22.158Z,6.41
2023-03-27T03:24:51.249Z,6.37
2023-03-27T03:27:22.588Z,6.35
2023-03-27T03:30:22.618Z,6.34
2023-03-27T03:32:58.401Z,6.33
2023-03-27T03:35:26.652Z,6.30
2023-03-27T03:37:55.113Z,6.27
2023-03-27T03:40:23.448Z,6.22
2023-03-27T03:42:55.478Z,6.20
2023-03-27T03:45:26.292Z,6.14
2023-03-27T03:47:55.148Z,6.11
2023-03-27T03:50:24.615Z,6.08
2023-03-27T03:52:53.380Z,6.08
2023-03-27T03:55:21.560Z,6.07
2023-03-27T03:57:50.522Z,6.04
2023-03-27T04:00:26.876Z,6.03
2023-03-27T04:02:55.480Z,6.01
2023-03-27T04:05:25.256Z,6.00
2023-03-27T04:07:55.017Z,5.98
2023-03-27T04:10:48.499Z,5.95
2023-03-27T04:13:24.618Z,5.94
2023-03-27T04:16:08.679Z,5.94
2023-03-27T04:18:42.554Z,5.93
2023-03-27T04:21:18.056Z,5.91
2023-03-27T04:23:51.424Z,5.86
2023-03-27T04:26:27.320Z,5.79
2023-03-27T04:29:25.952Z,5.76
2023-03-27T04:32:20.417Z,5.73
2023-03-27T04:35:10.939Z,5.73
2023-03-27T04:37:48.085Z,5.72
2023-03-27T04:40:30.058Z,5.72
2023-03-27T04:42:58.494Z,5.72
2023-03-27T04:45:27.308Z,5.69
2023-03-27T04:47:55.784Z,5.69
2023-03-27T04:50:24.692Z,5.70
2023-03-27T04:52:58.773Z,5.71
2023-03-27T04:55:27.174Z,5.75
2023-03-27T04:57:57.573Z,5.81
2023-03-27T05:00:25.968Z,5.87
2023-03-27T05:03:29.256Z,5.93
2023-03-27T05:06:10.224Z,6.00
2023-03-27T05:08:38.501Z,6.09
2023-03-27T05:11:07.847Z,6.19
2023-03-27T05:13:42.110Z,6.25
2023-03-27T05:16:11.173Z,6.29
2023-03-27T05:18:45.417Z,6.28
2023-03-27T05:21:13.922Z,6.28
2023-03-27T05:23:42.481Z,6.29
2023-03-27T05:26:12.195Z,6.30
2023-03-27T05:28:54.427Z,6.31
2023-03-27T05:31:23.167Z,6.31
2023-03-27T05:34:02.792Z,6.32
2023-03-27T05:36:32.797Z,6.30
2023-03-27T05:39:02.150Z,6.31
2023-03-27T05:41:39.929Z,6.33
2023-03-27T05:44:09.337Z,6.35
2023-03-27T05:46:42.915Z,6.51
2023-03-27T05:49:20.336Z,6.57
2023-03-27T05:51:52.739Z,6.58
2023-03-27T05:54:21.797Z,6.63
2023-03-27T05:57:08.043Z,6.69
2023-03-27T05:59:36.357Z,6.78
2023-03-27T06:02:21.023Z,6.89
2023-03-27T06:04:55.335Z,6.96
2023-03-27T06:07:32.251Z,7.02
2023-03-27T06:10:13.649Z,7.09
2023-03-27T06:13:05.230Z,7.15
2023-03-27T06:15:49.718Z,7.17
2023-03-27T06:18:25.604Z,7.18
2023-03-27T06:20:54.769Z,7.15
2023-03-27T06:23:23.621Z,7.14
2023-03-27T06:25:53.354Z,7.14
2023-03-27T06:28:24.570Z,7.12
2023-03-27T06:30:52.681Z,7.10
2023-03-27T06:33:46.833Z,7.06
2023-03-27T06:36:41.238Z,7.01
2023-03-27T06:39:11.528Z,7.01
2023-03-27T06:41:41.970Z,7.02
2023-03-27T06:44:15.042Z,7.04
2023-03-27T06:46:57.401Z,7.06
2023-03-27T06:49:31.886Z,7.09
2023-03-27T06:52:03.280Z,7.15
2023-03-27T06:54:31.502Z,7.20
2023-03-27T06:57:01.784Z,7.24
2023-03-27T06:59:38.494Z,7.29
2023-03-27T07:02:07.515Z,7.33
2023-03-27T07:04:35.776Z,7.39
2023-03-27T07:07:11.436Z,7.45
2023-03-27T07:09:42.350Z,7.49
2023-03-27T07:12:11.761Z,7.48
2023-03-27T07:14:40.182Z,7.45
2023-03-27T07:17:09.610Z,7.45
2023-03-27T07:19:52.142Z,7.43
2023-03-27T07:22:25.287Z,7.36
2023-03-27T07:24:53.290Z,7.24
2023-03-27T07:27:24.240Z,7.15
2023-03-27T07:30:00.491Z,7.10
2023-03-27T07:32:36.971Z,7.06
2023-03-27T07:35:06.923Z,7.07
2023-03-27T07:37:39.060Z,7.07
2023-03-27T07:40:36.858Z,7.04
2023-03-27T07:43:30.824Z,7.07
2023-03-27T07:45:59.205Z,7.07
2023-03-27T07:48:28.173Z,7.04
2023-03-27T07:51:10.669Z,7.06
2023-03-27T07:53:41.917Z,7.10
2023-03-27T07:56:34.097Z,7.15
2023-03-27T07:59:13.299Z,7.19
2023-03-27T08:01:42.590Z,7.26
2023-03-27T08:04:11.217Z,7.32
2023-03-27T08:06:41.044Z,7.41
2023-03-27T08:09:13.346Z,7.51
2023-03-27T08:11:41.544Z,7.62
2023-03-27T08:14:09.797Z,7.72
2023-03-27T08:16:41.834Z,7.81
2023-03-27T08:19:11.668Z,7.85
2023-03-27T08:21:43.429Z,7.90
2023-03-27T08:24:11.493Z,8.00
2023-03-27T08:27:00.253Z,8.15
2023-03-27T08:29:28.286Z,8.30
2023-03-27T08:31:56.499Z,8.49
2023-03-27T08:34:24.983Z,8.66
2023-03-27T08:36:53.798Z,8.79
2023-03-27T08:39:22.976Z,8.92
2023-03-27T08:42:03.231Z,9.03
2023-03-27T08:44:37.119Z,9.07
2023-03-27T08:47:23.668Z,9.09
2023-03-27T08:50:44.952Z,9.09
2023-03-27T08:53:29.463Z,9.07
2023-03-27T08:55:59.703Z,9.04
2023-03-27T08:58:34.660Z,8.99
2023-03-27T09:01:26.436Z,8.97
2023-03-27T09:04:05.218Z,8.97
2023-03-27T09:06:50.860Z,8.95
2023-03-27T09:09:46.636Z,8.93
2023-03-27T09:12:46.049Z,8.89
2023-03-27T09:15:26.458Z,8.87
2023-03-27T09:17:59.187Z,8.86
2023-03-27T09:20:45.152Z,8.82
2023-03-27T09:23:18.651Z,8.84
2023-03-27T09:26:34.804Z,8.86
2023-03-27T09:29:20.863Z,8.88
2023-03-27T09:31:56.547Z,8.90
2023-03-27T09:34:28.680Z,8.91
2023-03-27T09:36:59.786Z,8.92
2023-03-27T09:39:32.794Z,8.93
2023-03-27T09:42:24.388Z,8.90
2023-03-27T09:44:57.106Z,8.89
2023-03-27T09:47:40.853Z,8.92
2023-03-27T09:50:15.414Z,8.97
2023-03-27T09:52:54.494Z,9.03
2023-03-27T09:55:50.798Z,9.09
2023-03-27T09:58:27.985Z,9.14
2023-03-27T10:01:20.029Z,9.18
2023-03-27T10:03:55.270Z,9.23
2023-03-27T10:06:48.227Z,9.27
2023-03-27T10:09:38.802Z,9.32
2023-03-27T10:12:11.184Z,9.38
2023-03-27T10:14:43.859Z,9.40
2023-03-27T10:17:26.840Z,9.43
2023-03-27T10:20:21.119Z,9.52
2023-03-27T10:22:54.901Z,9.61
2023-03-27T10:25:32.287Z,9.71
2023-03-27T10:28:20.771Z,9.83
2023-03-27T10:31:28.345Z,9.95
2023-03-27T10:34:04.880Z,10.04
2023-03-27T10:36:56.676Z,10.09
2023-03-27T10:39:29.458Z,10.16
2023-03-27T10:42:18.662Z,10.26
2023-03-27T10:44:54.594Z,10.32
2023-03-27T10:47:26.703Z,10.29
2023-03-27T10:49:57.993Z,10.34
2023-03-27T10:52:57.032Z,10.48
2023-03-27T10:55:51.913Z,10.62
2023-03-27T10:58:47.306Z,10.77
2023-03-27T11:01:21.475Z,10.86
2023-03-27T11:04:04.725Z,10.99
2023-03-27T11:06:41.760Z,11.08
2023-03-27T11:09:30.289Z,11.12
2023-03-27T11:12:10.437Z,11.15
2023-03-27T11:15:07.489Z,11.17
2023-03-27T11:17:46.702Z,11.15
2023-03-27T11:20:26.486Z,11.21
2023-03-27T11:23:28.661Z,11.35
2023-03-27T11:26:28.104Z,11.59
2023-03-27T11:29:29.521Z,11.81
2023-03-27T11:32:11.446Z,11.98
2023-03-27T11:35:29.442Z,12.09
2023-03-27T11:38:19.302Z,12.22
2023-03-27T11:40:49.733Z,12.31
2023-03-27T11:43:20.558Z,12.37
2023-03-27T11:46:27.600Z,12.29
2023-03-27T11:49:41.600Z,12.23
2023-03-27T11:52:44.999Z,12.17
2023-03-27T11:55:25.873Z,12.10
2023-03-27T11:58:09.128Z,12.02
2023-03-27T12:01:01.965Z,11.93
2023-03-27T12:03:30.410Z,12.05
2023-03-27T12:06:17.334Z,12.14
2023-03-27T12:09:10.516Z,12.11
2023-03-27T12:12:16.151Z,12.04
2023-03-27T12:14:51.914Z,12.00
2023-03-27T12:17:49.016Z,11.93
2023-03-27T12:20:28.403Z,11.82
2023-03-27T12:23:41.724Z,11.71
2023-03-27T12:27:23.527Z,11.67
2023-03-27T12:30:26.816Z,11.69
2023-03-27T12:33:45.795Z,11.70
2023-03-27T12:36:19.057Z,11.66
2023-03-27T12:38:47.920Z,11.59
2023-03-27T12:41:30.373Z,11.54
2023-03-27T12:44:06.810Z,11.49
2023-03-27T12:46:41.065Z,11.45
2023-03-27T12:49:13.368Z,11.41
2023-03-27T12:52:03.026Z,11.55
2023-03-27T12:55:11.075Z,11.87
2023-03-27T12:58:05.497Z,11.85
2023-03-27T13:01:00.999Z,11.77
2023-03-27T13:04:05.431Z,11.72
2023-03-27T13:06:53.468Z,11.66
2023-03-27T13:09:45.201Z,11.62
2023-03-27T13:12:35.442Z,11.58
2023-03-27T13:15:19.775Z,11.55
2023-03-27T13:17:58.570Z,11.57
2023-03-27T13:20:40.313Z,11.60
2023-03-27T13:23:13.342Z,11.65
2023-03-27T13:25:54.742Z,11.71
2023-03-27T13:28:36.107Z,11.80
2023-03-27T13:31:15.839Z,11.91
2023-03-27T13:34:27.900Z,12.04
2023-03-27T13:37:14.210Z,12.17
2023-03-27T13:39:59.407Z,12.31
2023-03-27T13:42:53.949Z,12.43
2023-03-27T13:45:40.750Z,12.53
2023-03-27T13:48:39.651Z,12.62
2023-03-27T13:51:26.652Z,12.70
2023-03-27T13:54:04.055Z,12.76
2023-03-27T13:56:46.398Z,12.80
2023-03-27T13:59:37.874Z,12.80
2023-03-27T14:02:11.148Z,12.80
2023-03-27T14:05:17.808Z,12.81
2023-03-27T14:07:53.595Z,12.85
2023-03-27T14:10:38.412Z,12.89
2023-03-27T14:13:27.406Z,12.96
2023-03-27T14:16:20.139Z,13.04
2023-03-27T14:19:05.998Z,13.15
2023-03-27T14:21:56.279Z,13.27
2023-03-27T14:24:49.209Z,13.38
2023-03-27T14:27:34.689Z,13.50
2023-03-27T14:30:15.821Z,13.65
2023-03-27T14:32:49.208Z,13.76
2023-03-27T14:35:26.404Z,13.77
2023-03-27T14:38:16.878Z,13.76
2023-03-27T14:40:52.749Z,13.79
2023-03-27T14:43:28.496Z,13.78
2023-03-27T14:46:04.623Z,13.83
2023-03-27T14:48:37.434Z,13.93
2023-03-27T14:51:10.266Z,14.01
2023-03-27T14:53:44.344Z,14.06
2023-03-27T14:56:42.698Z,14.00
2023-03-27T14:59:35.058Z,13.91
2023-03-27T15:02:23.302Z,13.88
2023-03-27T15:04:58.395Z,13.85
2023-03-27T15:07:30.755Z,13.78
2023-03-27T15:10:07.404Z,13.73
2023-03-27T15:12:58.850Z,13.63
2023-03-27T15:15:40.092Z,13.52
2023-03-27T15:18:45.313Z,13.42
2023-03-27T15:21:20.633Z,13.31
2023-03-27T15:24:10.790Z,13.27
2023-03-27T15:26:41.262Z,13.25
2023-03-27T15:29:34.353Z,13.22
2023-03-27T15:32:08.970Z,13.18
2023-03-27T15:34:46.454Z,13.09
2023-03-27T15:37:23.451Z,12.92
2023-03-27T15:40:34.090Z,12.77
2023-03-27T15:43:14.549Z,12.62
2023-03-27T15:45:54.585Z,12.51
2023-03-27T15:48:35.501Z,12.43
2023-03-27T15:51:10.154Z,12.35
2023-03-27T15:53:47.070Z,12.25
2023-03-27T15:56:22.333Z,12.12
2023-03-27T15:58:58.348Z,11.99
2023-03-27T16:01:37.134Z,11.82
2023-03-27T16:04:15.062Z,11.66
2023-03-27T16:06:51.310Z,11.53
2023-03-27T16:09:51.332Z,11.41
2023-03-27T16:12:24.520Z,11.23
2023-03-27T16:14:57.420Z,11.07
2023-03-27T16:17:32.621Z,10.90
2023-03-27T16:20:13.451Z,10.76
2023-03-27T16:22:41.631Z,10.66
2023-03-27T16:25:12.119Z,10.59
2023-03-27T16:27:49.196Z,10.52
2023-03-27T16:30:23.513Z,10.46
2023-03-27T16:32:51.855Z,10.42
2023-03-27T16:35:20.212Z,10.40
2023-03-27T16:37:49.461Z,10.38
2023-03-27T16:40:17.830Z,10.36
2023-03-27T16:42:46.885Z,10.34
2023-03-27T16:45:15.774Z,10.32
2023-03-27T16:47:44.400Z,10.29
2023-03-27T16:50:19.514Z,10.27
2023-03-27T16:52:48.694Z,10.24
2023-03-27T16:55:17.377Z,10.21
2023-03-27T16:57:48.733Z,10.17
2023-03-27T17:00:18.739Z,10.14
2023-03-27T17:02:47.320Z,10.08
2023-03-27T17:05:16.316Z,10.02
2023-03-27T17:07:46.600Z,9.99
2023-03-27T17:10:14.873Z,9.94
2023-03-27T17:12:43.520Z,9.89
2023-03-27T17:15:11.756Z,9.84
2023-03-27T17:17:39.982Z,9.81
2023-03-27T17:20:08.920Z,9.76
2023-03-27T17:22:37.097Z,9.70
2023-03-27T17:25:09.980Z,9.64
2023-03-27T17:27:38.326Z,9.57
2023-03-27T17:30:07.544Z,9.52
2023-03-27T17:32:35.877Z,9.46
2023-03-27T17:35:05.374Z,9.37
2023-03-27T17:37:35.704Z,9.29
2023-03-27T17:40:09.776Z,9.25
2023-03-27T17:42:38.528Z,9.21
2023-03-27T17:45:07.120Z,9.16
2023-03-27T17:47:36.146Z,9.10
2023-03-27T17:50:05.338Z,9.07
2023-03-27T17:52:33.407Z,9.03
2023-03-27T17:55:01.498Z,9.00
2023-03-27T17:57:29.730Z,9.00
2023-03-27T17:59:57.824Z,9.05
2023-03-27T18:02:26.143Z,9.12
2023-03-27T18:04:54.791Z,9.17
2023-03-27T18:07:23.586Z,9.18
2023-03-27T18:09:52.538Z,9.16
2023-03-27T18:12:21.347Z,9.16
2023-03-27T18:14:49.399Z,9.17
2023-03-27T18:17:21.197Z,9.19
2023-03-27T18:19:49.544Z,9.20
2023-03-27T18:22:17.612Z,9.23
2023-03-27T18:24:48.654Z,9.31
2023-03-27T18:27:16.855Z,9.36
2023-03-27T18:29:45.011Z,9.39
2023-03-27T18:32:13.281Z,9.44
2023-03-27T18:34:41.567Z,9.46
2023-03-27T18:37:09.562Z,9.44
2023-03-27T18:39:38.111Z,9.39
2023-03-27T18:42:06.390Z,9.39
2023-03-27T18:44:36.503Z,9.38
2023-03-27T18:47:04.578Z,9.33
2023-03-27T18:49:32.765Z,9.26
2023-03-27T18:52:00.745Z,9.21
2023-03-27T18:54:29.006Z,9.18
2023-03-27T18:56:56.982Z,9.17
2023-03-27T18:59:25.210Z,9.14
2023-03-27T19:01:53.526Z,9.11
2023-03-27T19:04:21.652Z,9.08
2023-03-27T19:06:49.859Z,9.06
2023-03-27T19:09:19.969Z,9.04
2023-03-27T19:11:54.213Z,9.03
2023-03-27T19:14:41.796Z,9.01
2023-03-27T19:17:38.365Z,8.97
2023-03-27T19:20:26.189Z,8.94
2023-03-27T19:23:36.018Z,8.92
2023-03-27T19:26:13.686Z,8.89
2023-03-27T19:28:44.402Z,8.85
2023-03-27T19:31:12.768Z,8.81
2023-03-27T19:33:42.256Z,8.76
2023-03-27T19:36:10.860Z,8.73
2023-03-27T19:38:39.002Z,8.72
2023-03-27T19:41:11.804Z,8.68
2023-03-27T19:43:39.862Z,8.68
2023-03-27T19:46:16.452Z,8.66
2023-03-27T19:48:47.528Z,8.64
2023-03-27T19:51:38.684Z,8.60
2023-03-27T19:54:06.701Z,8.57
2023-03-27T19:56:35.466Z,8.55
2023-03-27T19:59:04.128Z,8.54
2023-03-27T20:01:32.317Z,8.52
2023-03-27T20:04:01.056Z,8.49
2023-03-27T20:06:30.189Z,8.42
2023-03-27T20:09:00.606Z,8.35
2023-03-27T20:11:28.704Z,8.33
2023-03-27T20:13:57.271Z,8.33
2023-03-27T20:16:27.545Z,8.32
2023-03-27T20:19:03.918Z,8.32
2023-03-27T20:21:36.147Z,8.34
2023-03-27T20:24:09.983Z,8.35
2023-03-27T20:26:41.826Z,8.36
2023-03-27T20:29:21.208Z,8.20
2023-03-27T20:31:49.681Z,7.84
2023-03-27T20:34:20.034Z,7.44
2023-03-27T20:36:48.511Z,7.05
2023-03-27T20:39:21.358Z,6.65
2023-03-27T20:41:51.398Z,6.24
2023-03-27T20:44:19.489Z,5.85
2023-03-27T20:46:51.672Z,5.58
2023-03-27T20:51:57.915Z,5.00
2023-03-27T20:54:27.725Z,4.76
2023-03-27T20:56:55.937Z,4.52
2023-03-27T20:59:24.179Z,4.29
2023-03-27T21:01:52.633Z,4.09
2023-03-27T21:04:21.741Z,3.91
2023-03-27T21:06:49.864Z,3.82
2023-03-27T21:09:17.886Z,3.71
2023-03-27T21:11:45.860Z,3.61
2023-03-27T21:14:13.820Z,3.48
2023-03-27T21:16:42.772Z,3.38
2023-03-27T21:19:12.115Z,3.26
2023-03-27T21:21:40.971Z,3.15
2023-03-27T21:24:09.490Z,3.06
2023-03-27T21:26:37.411Z,2.98
2023-03-27T21:29:06.138Z,2.89
2023-03-27T21:31:34.089Z,2.81
2023-03-27T21:34:02.027Z,2.74
2023-03-27T21:36:30.509Z,2.68
2023-03-27T21:38:58.817Z,2.62
2023-03-27T21:41:27.317Z,2.58
2023-03-27T21:43:55.377Z,2.54
2023-03-27T21:46:23.379Z,2.49
2023-03-27T21:48:52.129Z,2.42
2023-03-27T21:51:20.299Z,2.37
2023-03-27T21:53:48.498Z,2.35
2023-03-27T21:56:16.664Z,2.27
2023-03-27T21:58:45.012Z,2.24
2023-03-27T22:01:13.145Z,2.17
2023-03-27T22:03:41.587Z,2.08
2023-03-27T22:06:13.085Z,2.04
2023-03-27T22:08:43.123Z,2.01
2023-03-27T22:11:12.421Z,1.97
2023-03-27T22:13:41.758Z,1.89
2023-03-27T22:16:16.033Z,1.86
2023-03-27T22:18:44.961Z,1.82
2023-03-27T22:21:23.893Z,1.78
2023-03-27T22:23:54.136Z,1.74
2023-03-27T22:26:29.342Z,1.72
2023-03-27T22:28:57.937Z,1.70
2023-03-27T22:31:26.340Z,1.70
2023-03-27T22:33:54.373Z,1.68
2023-03-27T22:36:22.755Z,1.64
2023-03-27T22:38:51.131Z,1.55
2023-03-27T22:41:19.057Z,1.52
2023-03-27T22:43:49.772Z,1.48
2023-03-27T22:46:20.722Z,1.43
2023-03-27T22:48:57.451Z,1.39
2023-03-27T22:51:28.893Z,1.33
2023-03-27T22:53:57.571Z,1.29
2023-03-27T22:56:25.967Z,1.26
2023-03-27T22:58:53.897Z,1.24
2023-03-27T23:01:22.428Z,1.21
2023-03-27T23:03:50.447Z,1.15
2023-03-27T23:06:21.569Z,1.10
2023-03-27T23:08:50.932Z,1.06
2023-03-27T23:11:19.606Z,1.02
2023-03-27T23:13:47.972Z,0.99
2023-03-27T23:16:16.480Z,0.96
2023-03-27T23:18:44.524Z,0.92
2023-03-27T23:21:14.222Z,0.88
2023-03-27T23:23:42.816Z,0.84
2023-03-27T23:26:11.288Z,0.82
2023-03-27T23:28:41.519Z,0.79
2023-03-27T23:31:20.271Z,0.77
2023-03-27T23:33:50.901Z,0.74
2023-03-27T23:36:22.698Z,0.72
2023-03-27T23:38:52.614Z,0.70
2023-03-27T23:41:21.756Z,0.68
2023-03-27T23:43:50.024Z,0.69
2023-03-27T23:46:18.402Z,0.67
2023-03-27T23:48:46.693Z,0.67
2023-03-27T23:51:16.541Z,0.64
2023-03-27T23:53:44.877Z,0.64
2023-03-27T23:56:12.994Z,0.64
2023-03-27T23:58:41.511Z,0.65
